Sertar, China
Current Conditions -  °F | °C
As of 10:00 AM on Sunday 21 Dec 2014 (Local Time) from ZUUU Reporting Station
Haze Haze  
Wind Chill: 40°   Ceiling: Unl
Heat Index: 43°   Visibility: 1.8mi
Dew Point: 32°   Wind: 4mph
Humidity: 66%   Direction: 340°NNW
Pressure: 30.62"   Gusts: NA
Location:  32.28°N, 100.33°E
Report Text: ZUUU 210200Z 34002MPS 290V010 3000 BR NSC 06/M00 Q1037 NOSIG
Loading
Personal Weather Stations






























Interactive Weather Map New forecast layout! Learn more

10-Day Weather Forecast

Advertisements
Track Severe Weather on mobile